Time;durP1;ratioP1;P1;durP2;ratioP2;P2;SDS_P1;SDS_P2;PMS_P1;PMS_P2;Temp;Humidity;BMP_temperature;BMP_pressure;BME280_temperature;BME280_humidity;BME280_pressure;Samples;Min_cycle;Max_cycle;Signal;HPM_P1;HPM_P2
2022/08/29 00:00:08;;;;;;;9.70;6.40;;;;;;;22.50;68.62;100067.98;103489;1279;95260;-65
2022/08/29 00:03:01;;;;;;;9.80;6.90;;;;;;;22.49;68.78;100073.29;103405;1279;138848;-65
2022/08/29 00:05:36;;;;;;;10.00;7.00;;;;;;;22.50;68.80;100071.98;103575;1279;109682;-65
2022/08/29 00:08:06;;;;;;;9.50;6.50;;;;;;;22.50;69.10;100072.84;103434;1277;139368;-66
2022/08/29 00:10:36;;;;;;;11.20;7.70;;;;;;;22.51;69.09;100074.92;103518;1279;106841;-66
2022/08/29 00:13:06;;;;;;;11.60;7.40;;;;;;;22.53;69.16;100082.74;103678;1279;95370;-66
2022/08/29 00:15:35;;;;;;;10.00;7.20;;;;;;;22.51;69.40;100080.33;103505;1279;138623;-65
2022/08/29 00:18:15;;;;;;;10.20;7.40;;;;;;;22.52;69.48;100082.65;103624;1277;109795;-65
2022/08/29 00:20:44;;;;;;;10.90;7.30;;;;;;;22.47;70.06;100079.77;103461;1277;139155;-66
2022/08/29 00:23:12;;;;;;;12.60;7.90;;;;;;;22.48;69.96;100076.13;103691;1277;109037;-66
2022/08/29 00:25:40;;;;;;;11.40;8.20;;;;;;;22.50;69.95;100077.92;103478;1279;95732;-65
2022/08/29 00:28:08;;;;;;;10.50;7.60;;;;;;;22.51;70.16;100073.73;103472;1277;138783;-65
2022/08/29 00:30:36;;;;;;;12.60;7.50;;;;;;;22.49;70.32;100071.45;103478;1277;109816;-65
2022/08/29 00:33:04;;;;;;;10.30;6.90;;;;;;;22.50;70.38;100067.95;103399;1278;139793;-65
2022/08/29 00:35:36;;;;;;;10.10;7.50;;;;;;;22.51;70.40;100065.86;103462;1277;107583;-65
2022/08/29 00:38:08;;;;;;;11.10;7.00;;;;;;;22.49;70.48;100062.63;103362;1277;138732;-65
2022/08/29 00:40:40;;;;;;;10.30;7.20;;;;;;;22.44;70.55;100064.80;103503;1279;95220;-66
2022/08/29 00:43:09;;;;;;;10.30;7.10;;;;;;;22.34;71.05;100066.71;103457;1279;109830;-64
2022/08/29 00:45:42;;;;;;;10.30;6.70;;;;;;;22.28;71.53;100063.73;103487;1277;139395;-66
2022/08/29 00:48:13;;;;;;;10.30;6.80;;;;;;;22.34;71.38;100064.73;103740;1277;108828;-66
2022/08/29 00:50:58;;;;;;;10.70;7.30;;;;;;;22.40;70.95;100064.48;103435;1279;139127;-64
2022/08/29 00:53:35;;;;;;;9.70;6.80;;;;;;;22.44;71.04;100063.98;103475;1279;95253;-65
2022/08/29 00:56:07;;;;;;;11.80;7.70;;;;;;;22.46;71.17;100065.98;103374;1278;139600;-65
2022/08/29 00:58:41;;;;;;;10.20;6.90;;;;;;;22.50;71.17;100060.20;103514;1279;99430;-65
2022/08/29 01:01:09;;;;;;;10.80;7.50;;;;;;;22.47;71.41;100058.97;103550;1277;108880;-65
2022/08/29 01:03:38;;;;;;;11.80;7.90;;;;;;;22.40;71.64;100056.09;103467;1279;139198;-64
2022/08/29 01:06:12;;;;;;;10.50;7.90;;;;;;;22.31;72.03;100060.08;103510;1278;95702;-65
2022/08/29 01:08:41;;;;;;;11.50;8.20;;;;;;;22.33;71.72;100059.92;103428;1277;139877;-65
2022/08/29 01:14:00;;;;;;;11.40;8.30;;;;;;;22.40;71.29;100056.89;103434;1279;139109;-65
2022/08/29 01:16:29;;;;;;;13.50;9.40;;;;;;;22.43;71.32;100058.76;103520;1277;95266;-66
2022/08/29 01:19:02;;;;;;;13.00;8.90;;;;;;;22.44;71.36;100063.42;103512;1279;95578;-64
2022/08/29 01:21:43;;;;;;;15.20;9.50;;;;;;;22.31;71.76;100063.51;103412;1278;142265;-66
2022/08/29 01:24:14;;;;;;;14.10;10.10;;;;;;;22.23;72.03;100063.25;103581;1277;99836;-65
2022/08/29 01:26:45;;;;;;;14.30;9.90;;;;;;;22.18;72.21;100064.20;103434;1279;139063;-65
2022/08/29 01:29:15;;;;;;;12.80;8.80;;;;;;;22.16;72.26;100061.48;103632;1279;95510;-63
2022/08/29 01:31:48;;;;;;;12.50;8.20;;;;;;;22.14;72.58;100059.63;103554;1277;95231;-65
2022/08/29 01:34:26;;;;;;;11.50;8.50;;;;;;;22.12;72.43;100055.21;103475;1278;109963;-65
2022/08/29 01:36:57;;;;;;;11.90;9.10;;;;;;;22.10;72.40;100050.20;103521;1279;99409;-65
2022/08/29 01:39:35;;;;;;;13.70;9.40;;;;;;;22.06;72.22;100049.41;103396;1278;138278;-65
2022/08/29 01:42:09;;;;;;;12.80;8.60;;;;;;;22.04;72.26;100050.29;103523;1279;95245;-64
2022/08/29 01:44:38;;;;;;;12.60;9.00;;;;;;;22.10;72.21;100053.11;103587;1279;140526;-64
2022/08/29 01:47:08;;;;;;;11.40;8.70;;;;;;;22.08;72.36;100046.89;103486;1279;108818;-65
2022/08/29 01:49:37;;;;;;;11.30;8.80;;;;;;;22.10;72.27;100050.70;103532;1279;97789;-65
2022/08/29 01:52:07;;;;;;;12.40;8.90;;;;;;;22.12;72.20;100052.77;103266;1277;138995;-65
2022/08/29 01:54:36;;;;;;;13.80;9.10;;;;;;;22.14;71.95;100056.00;103668;1278;95466;-65
2022/08/29 01:57:04;;;;;;;12.30;9.20;;;;;;;22.12;71.99;100058.02;103307;1278;139275;-63
2022/08/29 01:59:39;;;;;;;13.50;9.40;;;;;;;22.09;71.96;100059.33;103426;1277;109243;-65
2022/08/29 02:02:19;;;;;;;12.50;9.40;;;;;;;22.08;72.14;100060.66;104021;1279;139969;-64
2022/08/29 02:04:48;;;;;;;14.70;9.30;;;;;;;22.08;72.28;100062.81;103807;1278;108861;-64
2022/08/29 02:07:19;;;;;;;14.20;9.70;;;;;;;22.07;72.23;100068.86;103682;1279;95257;-64
2022/08/29 02:09:47;;;;;;;14.80;10.80;;;;;;;22.05;72.19;100071.17;103582;1279;138747;-64
2022/08/29 02:12:16;;;;;;;14.10;9.80;;;;;;;22.04;72.20;100072.73;103737;1279;109516;-64
2022/08/29 02:14:44;;;;;;;15.00;10.40;;;;;;;22.01;72.52;100070.83;103438;1277;140139;-64
2022/08/29 02:17:12;;;;;;;14.80;10.50;;;;;;;21.99;72.45;100070.59;103490;1278;108803;-65
2022/08/29 02:19:41;;;;;;;15.60;11.30;;;;;;;22.02;72.45;100070.36;103560;1277;95885;-65
2022/08/29 02:22:09;;;;;;;16.20;11.10;;;;;;;22.03;72.49;100069.55;103583;1277;138591;-65
2022/08/29 02:24:38;;;;;;;16.30;11.40;;;;;;;22.03;72.67;100073.85;103483;1278;108248;-66
2022/08/29 02:27:06;;;;;;;16.50;10.90;;;;;;;22.03;72.67;100076.79;103382;1279;139497;-66
2022/08/29 02:29:36;;;;;;;16.50;11.00;;;;;;;22.08;72.32;100075.85;103587;1279;109367;-64
2022/08/29 02:32:08;;;;;;;14.80;11.70;;;;;;;22.10;72.42;100080.35;103458;1277;140946;-65
2022/08/29 02:34:36;;;;;;;16.10;12.00;;;;;;;22.11;72.45;100080.81;103649;1277;95589;-66
2022/08/29 02:37:05;;;;;;;16.20;12.10;;;;;;;22.09;72.47;100086.27;103511;1277;109839;-64
2022/08/29 02:39:33;;;;;;;15.60;11.80;;;;;;;22.13;72.48;100087.94;103366;1277;139304;-64
2022/08/29 02:42:02;;;;;;;17.30;12.60;;;;;;;22.11;72.61;100092.39;103674;1277;109094;-66
2022/08/29 02:44:30;;;;;;;17.60;12.70;;;;;;;22.04;72.95;100094.59;103440;1278;139786;-66
2022/08/29 02:46:58;;;;;;;17.80;13.10;;;;;;;22.00;73.04;100092.36;103649;1277;95138;-66
2022/08/29 02:49:26;;;;;;;17.60;13.00;;;;;;;22.01;73.08;100095.03;103459;1279;109508;-63
2022/08/29 02:51:55;;;;;;;17.60;12.90;;;;;;;22.00;73.32;100097.77;103416;1279;139605;-66
2022/08/29 02:54:23;;;;;;;18.00;12.20;;;;;;;21.99;73.39;100097.33;103497;1279;108823;-65
2022/08/29 02:56:51;;;;;;;17.70;12.60;;;;;;;21.99;73.43;100101.27;103328;1279;139370;-64
2022/08/29 02:59:19;;;;;;;15.30;12.20;;;;;;;22.00;73.46;100100.49;103512;1277;96063;-64
2022/08/29 03:01:47;;;;;;;16.10;12.40;;;;;;;21.98;73.50;100101.53;103388;1279;139260;-64
2022/08/29 03:04:15;;;;;;;15.60;12.30;;;;;;;21.98;73.43;100101.80;103536;1279;98592;-64
2022/08/29 03:06:42;;;;;;;16.80;12.70;;;;;;;21.99;73.46;100100.80;103522;1279;108792;-64
2022/08/29 03:09:10;;;;;;;17.00;12.40;;;;;;;21.98;73.70;100099.96;103410;1279;139377;-64
2022/08/29 03:11:38;;;;;;;15.20;11.60;;;;;;;21.99;73.79;100098.41;103509;1277;95206;-65
2022/08/29 03:14:06;;;;;;;15.50;12.50;;;;;;;22.01;73.74;100095.03;103370;1277;139587;-65
2022/08/29 03:16:34;;;;;;;17.00;13.40;;;;;;;22.02;73.81;100096.22;103536;1279;99897;-64
2022/08/29 03:19:02;;;;;;;18.70;14.10;;;;;;;21.95;73.97;100098.52;103480;1279;109535;-65
2022/08/29 03:21:32;;;;;;;18.10;14.80;;;;;;;21.88;74.23;100102.70;103347;1279;139174;-66
2022/08/29 03:24:00;;;;;;;18.20;14.10;;;;;;;21.86;74.35;100103.60;103526;1277;96475;-65
2022/08/29 03:26:28;;;;;;;17.10;14.20;;;;;;;21.90;74.32;100107.13;103336;1279;139440;-66
2022/08/29 03:28:55;;;;;;;17.90;13.60;;;;;;;21.95;74.12;100102.89;103734;1279;98960;-65
2022/08/29 03:31:23;;;;;;;17.80;14.80;;;;;;;22.05;73.94;100108.64;103552;1278;108788;-66
2022/08/29 03:33:51;;;;;;;18.90;15.60;;;;;;;22.11;73.49;100105.08;103391;1277;139637;-65
2022/08/29 03:36:19;;;;;;;19.80;15.60;;;;;;;22.09;73.78;100108.49;103536;1279;96915;-63
2022/08/29 03:38:47;;;;;;;18.30;15.70;;;;;;;22.07;73.88;100107.78;103404;1279;139763;-65
2022/08/29 03:41:21;;;;;;;19.00;15.30;;;;;;;22.08;74.02;100114.39;103463;1277;99406;-65
2022/08/29 03:43:50;;;;;;;21.40;16.40;;;;;;;22.10;74.17;100118.17;103534;1279;139527;-65
2022/08/29 03:46:18;;;;;;;18.90;15.80;;;;;;;22.14;73.95;100116.44;103541;1279;95762;-66
2022/08/29 03:48:47;;;;;;;21.60;16.20;;;;;;;22.14;73.96;100121.81;103535;1278;95247;-66
2022/08/29 03:51:16;;;;;;;20.00;16.20;;;;;;;22.16;74.16;100124.38;103497;1279;139512;-66
2022/08/29 03:53:45;;;;;;;20.90;15.90;;;;;;;22.18;74.03;100125.65;103550;1277;99624;-66
2022/08/29 03:56:13;;;;;;;19.90;16.40;;;;;;;22.18;74.14;100126.02;103471;1279;139577;-65
2022/08/29 03:58:49;;;;;;;21.20;15.80;;;;;;;22.14;74.17;100127.27;103639;1279;95750;-65
2022/08/29 04:01:27;;;;;;;20.30;16.00;;;;;;;22.10;74.40;100130.66;103605;1277;95609;-65
2022/08/29 04:03:56;;;;;;;18.20;14.10;;;;;;;22.04;74.49;100134.50;103454;1279;139901;-65
2022/08/29 04:06:27;;;;;;;15.90;12.40;;;;;;;21.99;74.56;100137.33;103469;1279;98846;-66
2022/08/29 04:08:55;;;;;;;15.50;11.90;;;;;;;21.92;74.42;100137.13;103494;1278;142319;-65
2022/08/29 04:11:25;;;;;;;15.10;12.10;;;;;;;21.94;74.56;100138.77;103457;1277;95690;-65
2022/08/29 04:13:53;;;;;;;17.00;11.10;;;;;;;21.95;74.44;100140.11;103619;1277;139438;-65
2022/08/29 04:16:26;;;;;;;14.90;11.50;;;;;;;21.97;74.32;100141.59;103469;1277;110720;-64
2022/08/29 04:18:58;;;;;;;15.60;11.20;;;;;;;21.94;74.45;100140.39;104018;1277;99579;-67
2022/08/29 04:21:26;;;;;;;14.30;11.50;;;;;;;21.89;74.55;100144.21;103659;1277;138496;-67
2022/08/29 04:23:55;;;;;;;14.90;10.60;;;;;;;21.84;74.86;100143.89;103450;1277;95351;-65
2022/08/29 04:26:23;;;;;;;14.00;10.20;;;;;;;21.81;74.87;100147.52;103474;1278;140368;-65
2022/08/29 04:29:07;;;;;;;14.30;9.20;;;;;;;21.80;74.88;100151.09;103733;1279;109756;-66
2022/08/29 04:31:35;;;;;;;12.50;8.40;;;;;;;21.77;74.88;100154.92;103575;1279;98866;-65
2022/08/29 04:34:06;;;;;;;12.80;8.40;;;;;;;21.77;75.01;100158.20;103383;1279;139454;-64
2022/08/29 04:36:35;;;;;;;10.40;7.80;;;;;;;21.78;74.75;100163.85;103760;1277;95210;-65
2022/08/29 04:39:04;;;;;;;9.40;6.20;;;;;;;21.83;74.69;100163.30;103358;1279;138827;-66
2022/08/29 04:41:34;;;;;;;8.30;5.30;;;;;;;21.76;73.93;100165.99;103416;1279;109969;-67
2022/08/29 04:44:03;;;;;;;7.40;4.70;;;;;;;21.66;74.02;100164.98;103360;1279;139278;-64
2022/08/29 04:46:31;;;;;;;6.60;3.80;;;;;;;21.60;74.14;100162.36;103537;1277;108663;-67
2022/08/29 04:48:59;;;;;;;7.20;4.40;;;;;;;21.53;73.76;100166.08;103433;1278;95846;-65
2022/08/29 04:51:34;;;;;;;7.40;4.20;;;;;;;21.48;73.71;100166.41;103470;1278;138421;-67
2022/08/29 04:54:03;;;;;;;6.10;3.40;;;;;;;21.48;73.78;100170.05;103808;1279;109750;-66
2022/08/29 04:56:32;;;;;;;5.90;3.60;;;;;;;21.43;73.79;100171.22;103475;1279;140009;-65
2022/08/29 04:59:01;;;;;;;6.20;3.70;;;;;;;21.42;73.84;100176.86;103452;1277;109097;-66
2022/08/29 05:01:30;;;;;;;6.30;3.20;;;;;;;21.42;73.86;100178.51;103768;1277;96140;-66
2022/08/29 05:03:58;;;;;;;6.20;3.50;;;;;;;21.36;73.84;100177.09;103398;1279;139024;-65
2022/08/29 05:06:27;;;;;;;6.10;3.30;;;;;;;21.34;74.03;100179.58;103483;1277;109772;-65
2022/08/29 05:08:55;;;;;;;6.10;3.20;;;;;;;21.33;73.77;100180.02;103365;1279;139290;-64
2022/08/29 05:11:30;;;;;;;5.70;2.80;;;;;;;21.30;73.65;100187.32;103376;1278;108733;-65
2022/08/29 05:13:59;;;;;;;5.90;3.00;;;;;;;21.24;73.48;100185.83;103819;1277;139754;-64
2022/08/29 05:16:28;;;;;;;5.50;3.00;;;;;;;21.18;73.57;100187.08;103692;1279;95168;-65
2022/08/29 05:18:58;;;;;;;6.70;2.70;;;;;;;21.17;73.50;100181.92;103474;1278;109738;-65
2022/08/29 05:21:30;;;;;;;5.90;3.30;;;;;;;21.23;73.80;100190.35;103333;1279;139069;-67
2022/08/29 05:24:05;;;;;;;5.30;3.10;;;;;;;21.24;73.52;100189.78;103458;1279;109215;-67
2022/08/29 05:26:38;;;;;;;5.70;3.10;;;;;;;21.27;73.41;100194.97;103601;1277;138581;-65
2022/08/29 05:29:08;;;;;;;5.20;3.20;;;;;;;21.27;73.59;100192.05;103501;1278;95240;-65
2022/08/29 05:31:39;;;;;;;5.10;2.80;;;;;;;21.23;73.59;100194.16;103509;1277;109740;-65
2022/08/29 05:34:10;;;;;;;5.50;2.90;;;;;;;21.23;73.79;100196.36;103462;1279;139263;-65
2022/08/29 05:36:58;;;;;;;6.50;2.90;;;;;;;21.23;73.31;100194.86;103436;1279;110742;-66
2022/08/29 05:39:26;;;;;;;6.90;3.40;;;;;;;21.25;73.27;100191.48;103466;1277;138671;-65
2022/08/29 05:41:56;;;;;;;6.10;3.30;;;;;;;21.28;73.16;100194.84;103445;1278;95561;-66
2022/08/29 05:44:26;;;;;;;5.60;3.30;;;;;;;21.29;73.26;100196.94;103574;1278;139033;-65
2022/08/29 05:46:59;;;;;;;5.90;2.90;;;;;;;21.33;73.19;100197.77;103575;1279;99473;-65
2022/08/29 05:49:27;;;;;;;6.10;3.50;;;;;;;21.34;73.17;100198.95;103479;1277;108848;-65
2022/08/29 05:51:56;;;;;;;5.90;3.40;;;;;;;21.39;73.05;100201.66;103344;1277;139183;-67
2022/08/29 05:54:24;;;;;;;6.20;3.50;;;;;;;21.40;72.97;100208.41;103637;1279;96339;-67
2022/08/29 05:56:57;;;;;;;7.60;3.90;;;;;;;21.35;73.05;100208.27;103414;1279;138660;-65
2022/08/29 05:59:25;;;;;;;6.30;3.60;;;;;;;21.36;73.17;100207.82;103507;1279;99655;-64
2022/08/29 06:01:53;;;;;;;6.70;3.90;;;;;;;21.42;73.18;100204.29;103382;1278;139295;-64
2022/08/29 06:04:20;;;;;;;6.50;4.00;;;;;;;21.47;73.07;100205.89;103516;1279;95688;-67
2022/08/29 06:06:49;;;;;;;7.50;4.20;;;;;;;21.50;72.90;100204.41;103564;1279;95264;-67
2022/08/29 06:09:17;;;;;;;7.70;4.30;;;;;;;21.51;72.96;100208.33;103367;1277;139261;-65
2022/08/29 06:11:48;;;;;;;7.40;4.10;;;;;;;21.51;72.86;100208.90;103490;1279;99413;-66
2022/08/29 06:14:16;;;;;;;6.90;4.40;;;;;;;21.49;72.58;100210.45;103462;1278;139319;-67
2022/08/29 06:16:45;;;;;;;7.10;4.30;;;;;;;21.50;72.49;100214.20;103706;1279;95486;-66
2022/08/29 06:19:13;;;;;;;7.10;4.40;;;;;;;21.52;72.63;100208.81;103549;1279;95786;-66
2022/08/29 06:21:41;;;;;;;8.30;4.60;;;;;;;21.60;72.43;100212.59;103408;1278;138889;-66
2022/08/29 06:24:09;;;;;;;6.90;4.60;;;;;;;21.66;72.36;100219.00;103513;1279;98965;-66
2022/08/29 06:26:37;;;;;;;8.20;4.70;;;;;;;21.76;72.35;100223.51;103742;1279;139100;-67
2022/08/29 06:29:07;;;;;;;8.60;5.00;;;;;;;21.87;72.05;100229.11;103482;1279;96128;-66
2022/08/29 06:31:35;;;;;;;8.10;5.10;;;;;;;21.94;71.88;100232.74;103557;1279;95330;-67
2022/08/29 06:34:05;;;;;;;8.70;5.20;;;;;;;21.97;71.56;100230.88;103529;1279;139248;-65
2022/08/29 06:36:34;;;;;;;8.00;5.70;;;;;;;21.99;71.34;100236.02;103542;1279;98821;-67
2022/08/29 06:39:06;;;;;;;8.30;5.30;;;;;;;22.01;71.20;100238.94;103446;1279;139099;-66
2022/08/29 06:41:36;;;;;;;9.10;5.30;;;;;;;22.07;71.11;100242.27;103710;1278;95203;-65
2022/08/29 06:44:07;;;;;;;9.30;5.70;;;;;;;22.13;70.84;100246.84;103374;1279;139663;-66
2022/08/29 06:46:44;;;;;;;8.60;5.80;;;;;;;22.13;70.74;100250.30;103619;1277;109749;-65
2022/08/29 06:49:14;;;;;;;9.30;6.10;;;;;;;22.11;70.55;100253.14;103455;1277;99059;-65
2022/08/29 06:51:45;;;;;;;9.20;5.90;;;;;;;22.09;70.76;100257.49;103301;1277;138228;-66
2022/08/29 06:54:14;;;;;;;8.70;6.00;;;;;;;22.10;70.74;100260.12;103501;1277;95499;-66
2022/08/29 06:56:42;;;;;;;9.30;6.10;;;;;;;22.06;70.49;100264.04;103414;1278;138824;-66
2022/08/29 06:59:11;;;;;;;9.40;6.20;;;;;;;22.03;70.46;100258.45;103364;1279;109729;-66
2022/08/29 07:01:41;;;;;;;8.60;6.20;;;;;;;21.97;70.02;100267.29;103553;1277;99382;-66
2022/08/29 07:04:10;;;;;;;9.10;6.00;;;;;;;21.99;70.00;100270.50;103417;1277;138649;-65
2022/08/29 07:06:42;;;;;;;8.80;5.10;;;;;;;22.11;69.90;100273.44;103543;1277;95523;-65
2022/08/29 07:09:11;;;;;;;8.70;6.10;;;;;;;22.25;69.80;100276.52;103500;1278;139394;-67
2022/08/29 07:11:41;;;;;;;9.40;5.70;;;;;;;22.29;68.82;100278.04;103506;1279;109757;-65
2022/08/29 07:14:10;;;;;;;10.80;6.70;;;;;;;22.25;68.79;100279.45;103420;1277;139753;-66
2022/08/29 07:16:38;;;;;;;9.10;5.30;;;;;;;22.21;68.95;100278.78;103672;1279;108636;-66
2022/08/29 07:19:07;;;;;;;8.90;6.00;;;;;;;22.19;69.00;100283.79;103468;1279;96946;-66
2022/08/29 07:21:35;;;;;;;9.70;6.30;;;;;;;22.09;69.09;100288.73;103627;1279;139222;-66
2022/08/29 07:24:05;;;;;;;9.30;6.20;;;;;;;21.98;69.26;100288.30;103542;1279;109416;-67
2022/08/29 07:26:41;;;;;;;9.20;5.60;;;;;;;21.93;69.48;100289.25;103853;1277;138646;-65
2022/08/29 07:29:12;;;;;;;9.10;5.40;;;;;;;21.92;69.65;100292.43;103608;1278;107144;-67
2022/08/29 07:31:40;;;;;;;9.30;5.80;;;;;;;21.91;69.47;100303.69;103658;1279;95243;-67
2022/08/29 07:34:09;;;;;;;9.90;5.80;;;;;;;21.93;69.23;100305.68;103447;1279;138639;-66
2022/08/29 07:36:38;;;;;;;9.70;5.60;;;;;;;21.99;68.83;100310.09;103584;1279;110216;-67
2022/08/29 07:39:10;;;;;;;8.60;5.00;;;;;;;21.99;68.19;100309.58;103558;1279;139436;-63
2022/08/29 07:41:40;;;;;;;9.10;4.50;;;;;;;22.05;67.74;100311.48;103552;1279;108679;-67
2022/08/29 07:44:09;;;;;;;9.10;5.20;;;;;;;22.08;67.43;100316.68;103396;1279;139390;-65
2022/08/29 07:46:37;;;;;;;8.00;5.10;;;;;;;22.08;67.41;100318.48;103555;1279;95587;-65
2022/08/29 07:49:06;;;;;;;8.00;4.80;;;;;;;22.05;67.11;100322.70;103648;1279;109691;-66
2022/08/29 07:51:35;;;;;;;8.50;4.80;;;;;;;21.98;66.80;100328.45;103508;1279;139193;-66
2022/08/29 07:54:04;;;;;;;8.60;4.90;;;;;;;21.88;67.11;100326.52;103523;1277;107382;-66
2022/08/29 07:56:38;;;;;;;9.30;5.50;;;;;;;21.83;67.28;100328.33;105044;1277;138590;-66
2022/08/29 07:59:06;;;;;;;9.50;5.20;;;;;;;21.75;67.73;100330.34;103716;1278;95030;-67
2022/08/29 08:01:34;;;;;;;7.50;5.10;;;;;;;21.75;68.12;100332.15;103808;1278;110798;-65
2022/08/29 08:04:03;;;;;;;8.00;4.80;;;;;;;21.72;68.33;100330.73;103411;1277;140645;-66
2022/08/29 08:06:32;;;;;;;9.50;5.20;;;;;;;21.65;68.33;100331.98;103717;1279;108794;-65
2022/08/29 08:09:02;;;;;;;8.70;5.00;;;;;;;21.60;68.44;100336.52;103538;1278;138460;-67
2022/08/29 08:11:30;;;;;;;8.60;4.90;;;;;;;21.49;68.77;100344.49;103614;1279;95265;-67
2022/08/29 08:13:58;;;;;;;8.00;4.80;;;;;;;21.46;68.88;100345.80;103377;1279;139592;-66
2022/08/29 08:16:27;;;;;;;9.80;5.10;;;;;;;21.47;68.66;100348.27;103438;1279;98135;-67
2022/08/29 08:18:56;;;;;;;9.90;6.10;;;;;;;21.47;68.58;100347.55;103329;1279;108818;-65
2022/08/29 08:21:25;;;;;;;9.10;5.50;;;;;;;21.48;68.44;100351.65;103318;1279;140476;-65
2022/08/29 08:23:53;;;;;;;9.40;5.80;;;;;;;21.45;68.45;100354.55;103658;1278;95581;-67
2022/08/29 08:26:21;;;;;;;10.40;6.40;;;;;;;21.46;68.76;100358.98;103359;1279;139150;-66
2022/08/29 08:28:49;;;;;;;11.30;6.60;;;;;;;21.51;68.27;100361.70;103392;1279;98320;-65
2022/08/29 08:31:18;;;;;;;11.40;7.00;;;;;;;21.52;67.96;100362.35;103441;1279;108699;-66
2022/08/29 08:33:47;;;;;;;12.10;6.30;;;;;;;21.51;67.70;100365.70;103433;1279;139254;-66
2022/08/29 08:36:19;;;;;;;10.50;6.50;;;;;;;21.46;67.29;100368.37;103613;1279;95320;-64
2022/08/29 08:38:48;;;;;;;11.50;6.90;;;;;;;21.42;67.31;100371.41;103311;1280;138767;-64
2022/08/29 08:41:39;;;;;;;12.40;7.50;;;;;;;21.43;67.26;100370.95;103312;1279;99546;-67
2022/08/29 08:46:51;;;;;;;11.30;8.40;;;;;;;21.40;67.19;100375.32;100283;1311;634607;-65
2022/08/29 08:49:26;;;;;;;14.60;8.80;;;;;;;21.37;66.88;100373.02;102853;1286;94784;-65
2022/08/29 08:52:01;;;;;;;12.40;8.70;;;;;;;21.36;66.97;100371.61;102184;1286;137906;-65
2022/08/29 08:54:35;;;;;;;12.50;7.40;;;;;;;21.40;67.24;100367.40;102141;1290;105819;-66
2022/08/29 08:57:07;;;;;;;10.60;7.70;;;;;;;21.49;66.60;100371.06;101768;1290;138748;-67
2022/08/29 08:59:42;;;;;;;10.90;7.60;;;;;;;21.66;65.67;100373.48;101440;1288;1895312;-65
2022/08/29 09:02:33;;;;;;;10.70;7.50;;;;;;;21.93;65.09;100368.41;102810;1287;138434;-66
2022/08/29 09:05:16;;;;;;;10.90;6.40;;;;;;;22.21;63.80;100363.77;102782;1288;94883;-64
2022/08/29 09:08:00;;;;;;;9.40;5.00;;;;;;;22.49;62.40;100367.32;103772;1276;105946;-65
2022/08/29 09:10:51;;;;;;;7.70;4.80;;;;;;;22.57;61.78;100370.19;103417;1277;99769;-65
2022/08/29 09:14:13;;;;;;;10.70;4.90;;;;;;;22.61;61.74;100377.23;103337;1277;108236;-65
2022/08/29 09:16:47;;;;;;;8.90;4.70;;;;;;;23.21;60.26;100375.14;107285;1276;92681;-67
2022/08/29 09:19:15;;;;;;;9.50;4.20;;;;;;;24.75;56.47;100375.09;106264;1276;94872;-66
2022/08/29 09:21:52;;;;;;;7.40;3.50;;;;;;;25.92;53.46;100371.98;103714;1277;138160;-65
2022/08/29 09:24:32;;;;;;;6.70;3.20;;;;;;;26.25;52.33;100368.23;103488;1276;99470;-69
2022/08/29 09:27:01;;;;;;;8.20;3.20;;;;;;;26.92;49.50;100365.97;103405;1277;137871;-67
2022/08/29 09:29:29;;;;;;;8.80;2.90;;;;;;;28.29;46.17;100375.67;103506;1276;94741;-67
2022/08/29 09:32:13;;;;;;;7.40;2.90;;;;;;;29.68;43.97;100374.20;103490;1276;137627;-65
2022/08/29 09:34:48;;;;;;;6.60;2.70;;;;;;;30.45;42.09;100377.61;104090;1276;107163;-66
2022/08/29 09:37:35;;;;;;;7.10;3.10;;;;;;;29.47;43.58;100381.97;103567;1277;99480;-66
2022/08/29 09:40:16;;;;;;;5.30;2.70;;;;;;;29.42;42.80;100383.63;103385;1278;137283;-68
2022/08/29 09:43:01;;;;;;;6.60;3.00;;;;;;;30.46;40.52;100382.48;103483;1276;95495;-68
2022/08/29 09:45:29;;;;;;;7.00;2.50;;;;;;;30.74;39.31;100385.27;103510;1277;137541;-67
2022/08/29 09:48:13;;;;;;;6.60;2.60;;;;;;;31.15;39.03;100381.45;103472;1276;106679;-67
2022/08/29 09:50:41;;;;;;;7.40;2.90;;;;;;;30.47;39.76;100381.05;103384;1276;138589;-68
2022/08/29 09:53:09;;;;;;;7.00;2.80;;;;;;;29.94;40.35;100382.46;103754;1276;108774;-68
2022/08/29 09:55:52;;;;;;;7.40;2.50;;;;;;;31.23;38.62;100379.14;103424;1276;138387;-68
2022/08/29 09:58:20;;;;;;;6.90;2.30;;;;;;;32.23;35.81;100383.61;103504;1276;94796;-67
2022/08/29 10:01:16;;;;;;;6.20;2.40;;;;;;;32.18;36.35;100380.40;103520;1276;105049;-68
2022/08/29 10:04:01;;;;;;;6.10;2.60;;;;;;;32.61;34.12;100380.77;103440;1276;137715;-68
2022/08/29 10:06:32;;;;;;;6.60;2.20;;;;;;;33.46;32.98;100375.06;103565;1276;108905;-68
2022/08/29 10:09:07;;;;;;;6.30;2.10;;;;;;;33.42;32.90;100375.44;103403;1276;138082;-67
2022/08/29 10:11:46;;;;;;;6.90;2.60;;;;;;;33.51;32.96;100373.83;103505;1276;94305;-68
2022/08/29 10:14:37;;;;;;;6.50;2.20;;;;;;;34.30;32.50;100376.54;103372;1277;137700;-67
2022/08/29 10:20:39;;;;;;;7.30;2.30;;;;;;;35.29;29.97;100378.75;103357;1276;150995;-67
2022/08/29 10:23:30;;;;;;;6.80;2.00;;;;;;;33.67;31.51;100383.04;103485;1277;94850;-67
2022/08/29 10:26:04;;;;;;;5.90;2.20;;;;;;;33.70;31.90;100385.94;103411;1277;138119;-67
2022/08/29 10:28:55;;;;;;;6.50;2.20;;;;;;;33.50;32.30;100385.41;103505;1277;107153;-67
2022/08/29 10:31:42;;;;;;;5.80;2.10;;;;;;;33.49;31.26;100390.33;103475;1278;98655;-68
2022/08/29 10:34:38;;;;;;;7.30;2.20;;;;;;;33.75;30.40;100391.18;103422;1278;138321;-68
2022/08/29 10:37:27;;;;;;;8.00;2.00;;;;;;;32.29;32.60;100393.41;103454;1277;94750;-68
2022/08/29 10:40:09;;;;;;;5.90;2.00;;;;;;;31.78;33.37;100391.73;103406;1278;138889;-68
2022/08/29 10:42:46;;;;;;;5.70;2.00;;;;;;;31.67;33.19;100387.96;103433;1279;107291;-69
2022/08/29 10:45:24;;;;;;;6.80;2.40;;;;;;;31.45;33.58;100386.72;103350;1278;138542;-68
2022/08/29 10:48:12;;;;;;;5.10;2.10;;;;;;;30.34;34.38;100394.02;103764;1277;108907;-68
2022/08/29 10:50:52;;;;;;;6.20;2.10;;;;;;;29.13;36.19;100396.70;103448;1277;138047;-68
2022/08/29 10:53:30;;;;;;;6.60;2.20;;;;;;;28.86;37.23;100399.52;103468;1277;94323;-68
2022/08/29 10:56:06;;;;;;;6.40;2.50;;;;;;;28.28;38.28;100403.33;103359;1278;138189;-68
2022/08/29 10:58:53;;;;;;;6.00;2.20;;;;;;;27.90;39.03;100401.69;103546;1278;98591;-68
2022/08/29 11:01:41;;;;;;;7.30;3.30;;;;;;;27.55;39.56;100396.57;103332;1276;108796;-67
2022/08/29 11:04:16;;;;;;;7.80;2.70;;;;;;;27.12;40.51;100401.20;103259;1276;138476;-68
2022/08/29 11:07:08;;;;;;;6.20;2.60;;;;;;;26.73;40.57;100402.58;103511;1277;94406;-68
2022/08/29 11:09:42;;;;;;;6.50;2.40;;;;;;;26.52;42.03;100400.69;103325;1278;137931;-69
2022/08/29 11:12:19;;;;;;;6.80;2.40;;;;;;;26.51;42.23;100396.76;103519;1277;99289;-68
2022/08/29 11:14:53;;;;;;;5.80;2.40;;;;;;;26.39;42.13;100399.89;104249;1277;137832;-70
2022/08/29 11:17:25;;;;;;;6.80;2.30;;;;;;;26.23;42.71;100396.64;104302;1277;94740;-67
2022/08/29 11:20:10;;;;;;;7.20;2.30;;;;;;;26.07;42.77;100403.50;103331;1279;139863;-69
2022/08/29 11:22:47;;;;;;;6.40;2.10;;;;;;;25.88;43.16;100405.94;103717;1277;107084;-68
2022/08/29 11:25:21;;;;;;;6.30;2.40;;;;;;;25.70;43.44;100405.88;103505;1277;99619;-69
2022/08/29 11:27:58;;;;;;;5.80;2.00;;;;;;;25.49;43.14;100403.64;103830;1279;137864;-66
2022/08/29 11:30:44;;;;;;;6.20;2.40;;;;;;;25.30;43.61;100407.40;103578;1276;94323;-67
2022/08/29 11:33:40;;;;;;;6.20;2.00;;;;;;;25.09;42.63;100406.00;103397;1277;137979;-67
2022/08/29 11:36:20;;;;;;;6.40;2.30;;;;;;;24.91;43.53;100404.63;103416;1276;107158;-68
2022/08/29 11:39:22;;;;;;;5.70;2.40;;;;;;;24.86;44.14;100403.79;103384;1277;140536;-67